Time;durP1;ratioP1;P1;durP2;ratioP2;P2;SDS_P1;SDS_P2;PMS_P1;PMS_P2;Temp;Humidity;BMP_temperature;BMP_pressure;BME280_temperature;BME280_humidity;BME280_pressure;Samples;Min_cycle;Max_cycle;Signal;HPM_P1;HPM_P2
2022/08/08 00:01:42;;;;;;;7.53;5.68;;;;;;;16.40;67.28;102268.31;5263267;28;20033;-71
2022/08/08 00:04:20;;;;;;;12.55;6.43;;;;;;;16.31;67.76;102269.31;5263214;28;20021;-71
2022/08/08 00:06:59;;;;;;;10.65;6.47;;;;;;;16.41;68.09;102272.69;5262172;28;20041;-71
2022/08/08 00:09:51;;;;;;;11.00;6.45;;;;;;;16.16;68.37;102270.34;5263659;28;20021;-72
2022/08/08 00:12:36;;;;;;;12.10;6.13;;;;;;;16.24;67.97;102270.25;5263424;28;20462;-71
2022/08/08 00:15:16;;;;;;;9.75;6.53;;;;;;;16.07;68.85;102278.38;5263395;28;20527;-72
2022/08/08 00:18:05;;;;;;;10.68;6.30;;;;;;;15.93;69.04;102275.91;5263209;28;20025;-71
2022/08/08 00:20:51;;;;;;;8.88;6.63;;;;;;;15.85;69.49;102269.84;5262989;28;20025;-71
2022/08/08 00:23:40;;;;;;;11.48;7.15;;;;;;;15.91;69.13;102280.31;5262990;28;20041;-71
2022/08/08 00:26:28;;;;;;;11.80;7.28;;;;;;;15.73;69.86;102281.34;5262855;28;20540;-71
2022/08/08 00:29:06;;;;;;;8.75;6.78;;;;;;;15.92;69.67;102284.66;5262794;28;20025;-72
2022/08/08 00:31:42;;;;;;;11.10;7.10;;;;;;;15.68;70.08;102281.41;5262898;28;20033;-72
2022/08/08 00:37:33;;;;;;;8.18;6.70;;;;;;;15.70;69.97;102284.00;5262540;28;20045;-71
2022/08/08 00:40:11;;;;;;;9.32;6.95;;;;;;;15.56;70.61;102288.53;5261724;28;20037;-71
2022/08/08 00:43:04;;;;;;;8.88;7.13;;;;;;;15.53;70.73;102281.53;5262602;28;20103;-71
2022/08/08 00:46:11;;;;;;;10.02;7.25;;;;;;;15.76;69.77;102281.34;5262495;28;20090;-71
2022/08/08 00:49:29;;;;;;;9.98;7.60;;;;;;;15.65;69.84;102284.06;5261235;28;20382;-71
2022/08/08 00:52:32;;;;;;;10.32;7.15;;;;;;;15.55;70.80;102287.63;5198189;28;20038;-71
2022/08/08 00:55:09;;;;;;;9.85;7.63;;;;;;;15.45;71.60;102281.59;5198154;28;20045;-71
2022/08/08 00:58:11;;;;;;;11.13;7.90;;;;;;;15.39;71.76;102270.28;5253215;28;20453;-71
2022/08/08 01:00:51;;;;;;;11.38;7.57;;;;;;;15.26;72.33;102264.25;5262313;28;20037;-71
2022/08/08 01:03:59;;;;;;;11.18;7.95;;;;;;;15.39;71.66;102273.81;5262142;28;20033;-71
2022/08/08 01:06:49;;;;;;;9.75;7.88;;;;;;;15.17;72.73;102265.22;5261784;28;20181;-72
2022/08/08 01:09:45;;;;;;;10.45;7.72;;;;;;;15.21;72.49;102261.66;5263690;28;20377;-72
2022/08/08 01:12:45;;;;;;;15.00;8.80;;;;;;;15.13;73.04;102263.50;5272424;28;20032;-72
2022/08/08 01:15:29;;;;;;;9.05;7.88;;;;;;;15.26;72.86;102264.25;5279221;28;20350;-72
2022/08/08 01:18:10;;;;;;;9.60;7.78;;;;;;;15.26;73.08;102270.41;5282521;28;20074;-71
2022/08/08 01:21:09;;;;;;;12.85;9.10;;;;;;;15.16;73.32;102271.34;5281299;28;20033;-71
2022/08/08 01:23:59;;;;;;;11.45;8.05;;;;;;;15.04;73.71;102268.84;5282664;28;20032;-72
2022/08/08 01:26:47;;;;;;;10.25;8.50;;;;;;;14.91;74.20;102262.81;5281238;28;20029;-72
2022/08/08 01:29:24;;;;;;;11.30;8.68;;;;;;;14.89;74.42;102260.19;5282457;28;20033;-71
2022/08/08 01:32:33;;;;;;;11.52;8.50;;;;;;;14.99;74.19;102266.25;5282638;28;20449;-70
2022/08/08 01:35:13;;;;;;;12.55;9.07;;;;;;;14.94;74.98;102260.13;5281873;28;20465;-71
2022/08/08 01:38:19;;;;;;;10.55;8.85;;;;;;;14.87;75.00;102258.44;5282200;28;20054;-71
2022/08/08 01:41:12;;;;;;;11.55;9.30;;;;;;;14.97;74.50;102265.38;5264709;28;20213;-71
2022/08/08 01:43:54;;;;;;;12.73;9.60;;;;;;;14.86;74.98;102260.22;5281059;28;20127;-72
2022/08/08 01:46:44;;;;;;;11.73;8.77;;;;;;;14.84;74.97;102255.84;5282606;28;20035;-72
2022/08/08 01:49:15;;;;;;;9.73;8.73;;;;;;;14.63;75.81;102254.22;5281239;28;20098;-71
2022/08/08 01:51:59;;;;;;;10.60;9.47;;;;;;;14.72;75.74;102251.56;5282257;28;20028;-71
2022/08/08 01:55:06;;;;;;;11.98;9.68;;;;;;;14.81;75.06;102262.00;5282215;28;20123;-71
2022/08/08 01:57:59;;;;;;;11.05;9.13;;;;;;;14.57;76.15;102257.72;5282238;28;20107;-71
2022/08/08 02:01:08;;;;;;;12.73;9.90;;;;;;;14.55;76.59;102272.59;5282111;28;20111;-71
2022/08/08 02:04:28;;;;;;;12.43;9.32;;;;;;;14.55;75.95;102276.13;5281539;28;20111;-71
2022/08/08 02:07:07;;;;;;;14.30;9.75;;;;;;;14.40;76.71;102266.56;5220557;28;20044;-71
2022/08/08 02:10:10;;;;;;;12.48;9.32;;;;;;;14.51;76.30;102268.28;5282403;28;20077;-71
2022/08/08 02:12:55;;;;;;;10.80;8.90;;;;;;;14.49;76.38;102268.28;5282206;28;20047;-71
2022/08/08 02:16:09;;;;;;;10.68;9.57;;;;;;;14.44;76.44;102271.78;5281909;28;20032;-71
2022/08/08 02:18:52;;;;;;;11.00;9.05;;;;;;;14.24;77.35;102275.38;5282029;28;20056;-72
2022/08/08 02:24:40;;;;;;;11.45;9.30;;;;;;;14.21;77.48;102273.63;5286305;28;20033;-71
2022/08/08 02:27:28;;;;;;;13.82;9.68;;;;;;;14.33;77.74;102270.09;5286017;28;20426;-71
2022/08/08 02:30:31;;;;;;;11.70;9.82;;;;;;;14.15;78.18;102275.41;5285922;28;20035;-71
2022/08/08 02:33:40;;;;;;;11.32;9.48;;;;;;;14.11;78.38;102271.94;5268022;28;20055;-71
2022/08/08 02:36:36;;;;;;;13.75;10.00;;;;;;;14.05;78.54;102269.34;5285398;28;20102;-71
2022/08/08 02:39:13;;;;;;;10.73;9.63;;;;;;;14.21;78.53;102270.16;5285882;28;20025;-71
2022/08/08 02:42:14;;;;;;;17.42;10.40;;;;;;;14.16;78.84;102274.56;5285858;28;20392;-71
2022/08/08 02:44:57;;;;;;;11.82;9.82;;;;;;;13.94;79.44;102266.78;5285003;28;20051;-70
2022/08/08 02:47:47;;;;;;;14.50;10.68;;;;;;;13.94;79.70;102269.41;5285945;28;20107;-71
2022/08/08 02:50:30;;;;;;;12.50;9.60;;;;;;;13.92;79.79;102272.88;5285527;28;20032;-71
2022/08/08 02:53:04;;;;;;;16.63;10.23;;;;;;;13.97;79.81;102266.72;5285320;28;20170;-71
2022/08/08 02:56:00;;;;;;;14.75;10.68;;;;;;;13.89;79.97;102268.50;5285177;28;20086;-71
2022/08/08 02:58:48;;;;;;;12.73;10.85;;;;;;;13.84;79.86;102265.91;5285655;28;20464;-71
2022/08/08 03:01:58;;;;;;;11.65;10.45;;;;;;;13.87;80.15;102265.03;5285272;28;20102;-71
2022/08/08 03:05:11;;;;;;;12.10;10.43;;;;;;;13.72;80.66;102271.19;5285237;28;20461;-72
2022/08/08 03:08:16;;;;;;;13.23;11.77;;;;;;;13.68;80.60;102272.06;5284976;28;20044;-71
2022/08/08 03:11:12;;;;;;;14.07;11.82;;;;;;;13.61;81.10;102273.81;5285137;28;20029;-72
2022/08/08 03:14:05;;;;;;;12.05;10.85;;;;;;;13.65;81.46;102269.44;5285239;28;20028;-71
2022/08/08 03:17:02;;;;;;;13.35;10.45;;;;;;;13.52;81.68;102268.59;5285371;28;20060;-71
2022/08/08 03:20:05;;;;;;;17.75;10.80;;;;;;;13.55;81.76;102275.59;5270013;28;20530;-71
2022/08/08 03:22:46;;;;;;;13.00;11.63;;;;;;;13.50;82.40;102276.44;5285026;28;20036;-71
2022/08/08 03:25:20;;;;;;;13.40;10.52;;;;;;;13.43;82.61;102274.72;5284924;28;20366;-71
2022/08/08 03:28:11;;;;;;;11.80;10.60;;;;;;;13.41;83.14;102276.47;5284862;28;20025;-71
2022/08/08 03:30:44;;;;;;;12.77;10.80;;;;;;;13.31;83.10;102272.97;5284718;28;20179;-71
2022/08/08 03:33:18;;;;;;;13.98;12.52;;;;;;;13.20;83.79;102286.91;5282551;28;20028;-71
2022/08/08 03:35:50;;;;;;;13.32;11.70;;;;;;;13.33;84.21;102278.22;5284340;28;20103;-71
2022/08/08 03:38:22;;;;;;;13.95;11.20;;;;;;;13.25;83.66;102280.81;5284697;28;20503;-71
2022/08/08 03:40:54;;;;;;;18.20;13.10;;;;;;;13.20;84.22;102281.66;5284478;28;20052;-71
2022/08/08 03:43:26;;;;;;;16.20;12.45;;;;;;;13.14;84.82;102282.56;5284789;28;20047;-72
2022/08/08 03:46:03;;;;;;;13.63;11.03;;;;;;;13.11;85.08;102280.78;5284405;28;20037;-72
2022/08/08 03:48:34;;;;;;;14.45;11.77;;;;;;;13.00;85.91;102287.78;5284419;28;20037;-71
2022/08/08 03:51:06;;;;;;;15.57;12.57;;;;;;;13.07;86.24;102289.53;5284311;28;20029;-71
2022/08/08 03:53:37;;;;;;;20.07;12.67;;;;;;;12.91;86.49;102283.41;5284917;28;20110;-72
2022/08/08 03:56:09;;;;;;;15.70;12.77;;;;;;;13.01;86.73;102289.53;5284465;28;20534;-71
2022/08/08 03:58:47;;;;;;;12.80;11.50;;;;;;;13.01;86.63;102284.28;5284421;28;20274;-71
2022/08/08 04:01:19;;;;;;;13.38;11.38;;;;;;;13.01;86.46;102289.53;5284370;28;20103;-71
2022/08/08 04:03:51;;;;;;;15.38;12.15;;;;;;;13.18;86.17;102296.50;5284134;28;20179;-72
2022/08/08 04:06:22;;;;;;;13.33;11.57;;;;;;;13.19;85.98;102307.00;5283941;28;20028;-71
2022/08/08 04:08:53;;;;;;;15.20;11.70;;;;;;;13.09;85.68;102300.00;5283987;28;20086;-72
2022/08/08 04:11:25;;;;;;;12.97;11.57;;;;;;;13.14;85.83;102299.13;5283760;28;20033;-72
2022/08/08 04:13:57;;;;;;;16.97;11.37;;;;;;;13.01;86.41;102307.84;5282419;28;20050;-71
2022/08/08 04:16:28;;;;;;;14.60;12.77;;;;;;;13.03;86.65;102306.09;5283556;28;20064;-72
2022/08/08 04:19:00;;;;;;;15.50;11.83;;;;;;;13.02;86.70;102304.34;5265711;28;20443;-72
2022/08/08 04:21:31;;;;;;;20.20;13.40;;;;;;;12.95;86.96;102302.59;5283606;28;20404;-70
2022/08/08 04:24:03;;;;;;;17.87;12.00;;;;;;;13.01;87.18;102306.94;5281837;28;20039;-71
2022/08/08 04:26:34;;;;;;;15.87;12.13;;;;;;;13.10;87.33;102310.44;5283212;28;20035;-72
2022/08/08 04:29:05;;;;;;;12.93;11.57;;;;;;;13.13;87.07;102301.75;5283333;28;20028;-72
2022/08/08 04:31:37;;;;;;;15.10;11.97;;;;;;;13.10;87.15;102306.97;5283666;28;20078;-72
2022/08/08 04:34:08;;;;;;;17.73;12.27;;;;;;;13.25;86.77;102306.09;5282977;28;20029;-72
2022/08/08 04:36:39;;;;;;;14.80;12.67;;;;;;;13.27;86.73;102309.63;5283404;28;20060;-72
2022/08/08 04:39:11;;;;;;;15.67;13.17;;;;;;;13.20;86.66;102316.59;5283212;28;20048;-72
2022/08/08 04:41:42;;;;;;;18.43;12.40;;;;;;;13.33;86.55;102320.13;5283003;28;20052;-72
2022/08/08 04:44:14;;;;;;;13.80;12.30;;;;;;;13.25;86.22;102319.19;5282996;28;20039;-71
2022/08/08 04:46:45;;;;;;;14.73;12.57;;;;;;;13.38;86.28;102327.97;5283322;28;20033;-71
2022/08/08 04:49:17;;;;;;;16.67;12.77;;;;;;;13.26;86.18;102320.97;5283152;28;20485;-72
2022/08/08 04:51:48;;;;;;;18.67;13.57;;;;;;;13.34;86.90;102329.72;5282891;28;20046;-71
2022/08/08 04:54:19;;;;;;;16.30;13.53;;;;;;;13.32;86.85;102340.19;5281901;28;20040;-72
2022/08/08 04:56:51;;;;;;;14.47;12.93;;;;;;;13.31;87.10;102337.53;5283166;28;20372;-71
2022/08/08 04:59:22;;;;;;;15.60;13.60;;;;;;;13.33;87.24;102341.09;5282901;28;20536;-72
2022/08/08 05:01:54;;;;;;;15.77;14.17;;;;;;;13.35;87.23;102341.06;5282882;28;20329;-71
2022/08/08 05:04:25;;;;;;;14.13;12.70;;;;;;;13.39;87.24;102346.31;5280839;28;20036;-71
2022/08/08 05:06:57;;;;;;;13.90;12.47;;;;;;;13.47;87.47;102348.94;5282940;28;20397;-71
2022/08/08 05:09:28;;;;;;;17.33;14.23;;;;;;;13.41;87.35;102346.31;5269593;28;20037;-72
2022/08/08 05:12:02;;;;;;;18.40;14.83;;;;;;;13.50;87.91;102347.19;5259311;28;20099;-72
2022/08/08 05:14:33;;;;;;;16.98;15.15;;;;;;;13.54;87.98;102341.94;5261982;28;20051;-72
2022/08/08 05:17:04;;;;;;;19.27;15.67;;;;;;;13.59;88.06;102348.94;5278302;28;20070;-72
2022/08/08 05:19:36;;;;;;;17.77;14.97;;;;;;;13.49;88.10;102353.31;5279920;28;20119;-72
2022/08/08 05:22:09;;;;;;;17.13;15.07;;;;;;;13.50;88.60;102348.94;5280013;28;20131;-72
2022/08/08 05:24:41;;;;;;;18.05;16.08;;;;;;;13.52;88.93;102352.41;5277406;28;20098;-73
2022/08/08 05:27:12;;;;;;;20.33;15.57;;;;;;;13.55;88.99;102351.56;5270149;28;20102;-72
2022/08/08 05:29:43;;;;;;;15.87;14.37;;;;;;;13.56;89.48;102359.41;5257106;28;20044;-73
2022/08/08 05:32:15;;;;;;;15.50;13.90;;;;;;;13.58;89.53;102362.91;5258859;28;20075;-72
2022/08/08 05:34:48;;;;;;;15.37;13.77;;;;;;;13.63;89.89;102358.53;5257670;28;20427;-73
2022/08/08 05:37:24;;;;;;;16.42;13.82;;;;;;;13.73;90.42;102351.53;5258741;28;20466;-73
2022/08/08 05:39:55;;;;;;;16.05;13.75;;;;;;;13.68;90.02;102353.28;5256606;28;20071;-73
2022/08/08 05:42:45;;;;;;;13.90;12.50;;;;;;;13.86;90.38;102358.53;5258164;28;20482;-73
2022/08/08 05:45:16;;;;;;;16.23;13.30;;;;;;;13.83;89.95;102350.66;5258381;28;20104;-73
2022/08/08 05:47:49;;;;;;;15.10;13.43;;;;;;;14.03;89.54;102360.25;5257739;28;20124;-76
2022/08/08 05:50:24;;;;;;;17.13;13.13;;;;;;;14.06;89.12;102348.91;5268180;28;20040;-73
2022/08/08 05:52:55;;;;;;;18.88;14.15;;;;;;;14.11;89.21;102357.63;5276211;28;20036;-76
2022/08/08 05:55:28;;;;;;;16.73;13.10;;;;;;;14.14;89.38;102362.84;5276536;28;20381;-73
2022/08/08 05:58:00;;;;;;;15.75;14.15;;;;;;;14.20;89.33;102357.59;5277510;28;20039;-73
2022/08/08 06:00:31;;;;;;;15.10;12.98;;;;;;;14.32;89.56;102361.94;5276421;28;20400;-73
2022/08/08 06:03:12;;;;;;;15.90;13.03;;;;;;;14.36;89.27;102369.78;5276997;28;20061;-74
2022/08/08 06:05:55;;;;;;;14.77;13.02;;;;;;;14.50;89.29;102364.47;5277755;28;20074;-76
2022/08/08 06:08:29;;;;;;;14.57;12.57;;;;;;;14.57;89.47;102366.19;5276525;28;20028;-73
2022/08/08 06:11:03;;;;;;;15.20;12.07;;;;;;;14.57;88.99;102374.06;5276371;28;20025;-73
2022/08/08 06:13:34;;;;;;;16.85;12.13;;;;;;;14.64;88.73;102374.09;5278558;28;20036;-73
2022/08/08 06:16:10;;;;;;;14.97;12.60;;;;;;;14.71;88.53;102379.28;5276259;28;20032;-74
2022/08/08 06:18:41;;;;;;;15.95;13.05;;;;;;;14.79;88.21;102368.75;5277156;28;20172;-74
2022/08/08 06:21:14;;;;;;;14.73;12.37;;;;;;;14.83;88.22;102383.63;5264997;28;20049;-79
2022/08/08 06:23:45;;;;;;;;;;;;;;;15.01;86.60;102385.28;5259163;28;20029;-75
2022/08/08 06:26:18;;;;;;;14.63;11.52;;;;;;;15.03;87.05;102388.75;5256970;28;20407;-73
2022/08/08 06:29:04;;;;;;;14.07;10.82;;;;;;;15.17;87.34;102379.94;5258863;28;20362;-75
2022/08/08 06:31:37;;;;;;;14.07;10.98;;;;;;;15.30;87.81;102389.47;5256141;28;20029;-76
2022/08/08 06:34:17;;;;;;;17.13;11.77;;;;;;;15.41;87.47;102392.03;5257259;28;20029;-76
2022/08/08 06:36:49;;;;;;;13.27;10.68;;;;;;;15.53;86.81;102391.06;5258281;28;20036;-77
2022/08/08 06:39:21;;;;;;;18.50;11.40;;;;;;;15.64;85.79;102397.09;5267813;28;20036;-78
2022/08/08 06:41:56;;;;;;;14.93;11.60;;;;;;;15.69;86.30;102395.31;5276040;28;20249;-74
2022/08/08 06:44:28;;;;;;;14.95;10.98;;;;;;;15.71;85.28;102390.91;5276531;28;20470;-74
2022/08/08 06:47:00;;;;;;;;;;;;;;;15.89;84.15;102400.44;5278835;28;20532;-77
2022/08/08 06:49:32;;;;;;;14.20;10.27;;;;;;;15.97;84.11;102402.97;5252739;28;20038;-74
2022/08/08 06:52:06;;;;;;;11.73;10.52;;;;;;;16.02;84.85;102406.44;5256840;28;20478;-74
2022/08/08 06:54:38;;;;;;;12.85;9.35;;;;;;;16.14;84.04;102403.69;5254581;28;20101;-74
2022/08/08 06:57:09;;;;;;;11.35;10.10;;;;;;;16.26;83.56;102404.44;5258634;28;20109;-74
2022/08/08 06:59:41;;;;;;;11.07;8.73;;;;;;;16.37;83.42;102408.72;5267545;28;20032;-73
2022/08/08 07:02:22;;;;;;;12.00;9.63;;;;;;;16.51;82.67;102405.91;5256304;28;20065;-75
2022/08/08 07:05:04;;;;;;;13.45;8.32;;;;;;;16.65;80.94;102408.38;5271406;28;20037;-74
2022/08/08 07:07:38;;;;;;;11.25;8.60;;;;;;;16.64;80.62;102413.66;5279644;28;20799;-74
2022/08/08 07:10:11;;;;;;;15.98;9.05;;;;;;;16.65;80.72;102410.16;5279472;28;20028;-74
2022/08/08 07:12:45;;;;;;;15.77;8.38;;;;;;;16.82;80.61;102413.41;5273240;28;20029;-72
2022/08/08 07:15:20;;;;;;;12.70;8.02;;;;;;;16.96;79.51;102415.91;5259379;28;20040;-74
2022/08/08 07:18:01;;;;;;;11.65;8.63;;;;;;;17.10;77.91;102413.09;5258966;28;20032;-72
2022/08/08 07:20:38;;;;;;;12.95;7.82;;;;;;;17.28;77.29;102419.88;5275739;28;20040;-72
2022/08/08 07:23:26;;;;;;;11.60;7.15;;;;;;;17.44;74.86;102428.41;5281205;28;20044;-72
2022/08/08 07:26:02;;;;;;;14.80;7.13;;;;;;;17.47;76.06;102423.09;5280183;28;20473;-73
2022/08/08 07:28:35;;;;;;;10.95;6.38;;;;;;;17.67;73.33;102422.78;5281481;28;20040;-73
2022/08/08 07:31:07;;;;;;;10.68;6.10;;;;;;;17.85;73.71;102421.59;5280738;28;20115;-73
2022/08/08 07:33:40;;;;;;;10.38;5.78;;;;;;;17.97;72.35;102425.84;5281360;28;20072;-75
2022/08/08 07:36:12;;;;;;;;;;;;;;;18.12;72.99;102427.31;5279668;28;20043;-73
2022/08/08 07:38:46;;;;;;;11.15;5.60;;;;;;;17.98;71.75;102431.09;5280142;28;19917;-73
2022/08/08 07:41:18;;;;;;;9.23;6.05;;;;;;;17.99;72.41;102419.63;5281030;28;20504;-73
2022/08/08 07:43:54;;;;;;;8.75;5.30;;;;;;;18.01;71.59;102430.16;5281846;28;20075;-76
2022/08/08 07:46:25;;;;;;;10.30;5.32;;;;;;;18.20;72.19;102426.28;5281366;28;20149;-73
2022/08/08 07:48:57;;;;;;;11.43;5.10;;;;;;;18.34;71.21;102425.16;5281216;28;20048;-74
2022/08/08 07:51:29;;;;;;;9.37;5.30;;;;;;;18.46;70.62;102419.63;5279817;28;20033;-72
2022/08/08 07:54:25;;;;;;;7.95;4.50;;;;;;;18.62;70.16;102421.97;5280226;28;20401;-74
2022/08/08 07:57:35;;;;;;;9.70;4.10;;;;;;;18.70;69.58;102431.47;5281853;28;20043;-75
2022/08/08 08:00:09;;;;;;;11.93;4.40;;;;;;;18.58;69.28;102429.09;5280662;28;20060;-72
2022/08/08 08:02:51;;;;;;;10.02;4.40;;;;;;;18.65;69.41;102438.63;5272882;28;20523;-74
2022/08/08 08:05:28;;;;;;;8.60;3.90;;;;;;;18.73;68.69;102441.09;5259439;28;20101;-74
2022/08/08 08:08:09;;;;;;;8.52;3.40;;;;;;;18.82;67.68;102440.91;5260260;28;20033;-74
2022/08/08 08:10:43;;;;;;;8.48;4.78;;;;;;;18.99;67.76;102445.00;5259433;28;20033;-75
2022/08/08 08:13:20;;;;;;;8.20;3.53;;;;;;;19.01;67.62;102446.69;5258634;28;20481;-74
2022/08/08 08:16:02;;;;;;;6.32;3.67;;;;;;;19.08;69.20;102447.44;5260359;28;20102;-73
2022/08/08 08:18:44;;;;;;;8.37;4.13;;;;;;;19.31;67.71;102447.78;5279546;28;20564;-73
2022/08/08 08:21:16;;;;;;;7.63;3.63;;;;;;;19.29;66.42;102446.09;5280267;28;20259;-73
2022/08/08 08:23:48;;;;;;;6.00;3.50;;;;;;;19.36;64.84;102446.81;5281008;28;20102;-73
2022/08/08 08:26:20;;;;;;;6.20;3.00;;;;;;;19.47;67.12;102448.28;5279425;28;20028;-74
2022/08/08 08:28:51;;;;;;;7.63;3.15;;;;;;;19.53;66.97;102444.66;5280825;28;20036;-72
2022/08/08 08:31:23;;;;;;;6.17;3.00;;;;;;;19.51;64.87;102446.44;5279213;28;20059;-72
2022/08/08 08:33:56;;;;;;;6.95;2.80;;;;;;;19.60;64.60;102456.81;5280892;28;20044;-73
2022/08/08 08:36:28;;;;;;;5.85;3.08;;;;;;;19.75;65.69;102460.00;5279247;28;20039;-72
2022/08/08 08:38:59;;;;;;;6.87;3.53;;;;;;;19.69;61.91;102453.09;5279495;28;20044;-73
2022/08/08 08:41:31;;;;;;;6.67;2.50;;;;;;;19.71;62.49;102455.69;5279954;28;20139;-73
2022/08/08 08:44:03;;;;;;;6.35;2.85;;;;;;;19.71;64.13;102458.34;5280648;28;20119;-73
2022/08/08 08:46:36;;;;;;;8.27;3.10;;;;;;;19.84;65.60;102462.44;5279285;28;20086;-76
2022/08/08 08:49:08;;;;;;;;;;;;;;;20.04;64.86;102454.88;5281183;28;20035;-73
2022/08/08 08:51:42;;;;;;;4.97;2.70;;;;;;;20.03;61.70;102461.06;5279035;28;19934;-74
2022/08/08 08:54:13;;;;;;;5.28;2.53;;;;;;;20.13;61.73;102461.69;5280300;28;20404;-74
2022/08/08 08:56:46;;;;;;;6.15;2.55;;;;;;;20.26;63.79;102456.09;5279668;28;20037;-76
2022/08/08 08:59:18;;;;;;;3.88;2.30;;;;;;;20.22;60.58;102465.88;5280402;28;20918;-74
2022/08/08 09:01:52;;;;;;;8.98;3.00;;;;;;;20.33;60.08;102462.94;5279677;28;20393;-76
2022/08/08 09:04:26;;;;;;;7.38;2.55;;;;;;;20.32;58.81;102464.72;5279824;28;20086;-76
2022/08/08 09:07:01;;;;;;;6.40;2.20;;;;;;;20.30;58.37;102461.25;5279916;28;20032;-75
2022/08/08 09:09:34;;;;;;;6.22;2.40;;;;;;;20.34;58.67;102454.09;5266358;28;20488;-75
2022/08/08 09:12:09;;;;;;;4.47;2.28;;;;;;;20.36;60.06;102465.50;5259273;28;20059;-76
2022/08/08 09:14:41;;;;;;;7.70;2.83;;;;;;;20.59;58.81;102462.22;5257380;28;20025;-74
2022/08/08 09:17:12;;;;;;;6.78;2.67;;;;;;;20.65;57.13;102464.72;5259367;28;20112;-75
2022/08/08 09:19:47;;;;;;;6.25;2.10;;;;;;;20.77;57.26;102468.81;5258493;28;20029;-76
2022/08/08 09:22:21;;;;;;;7.00;2.50;;;;;;;20.81;55.92;102459.84;5258860;28;20389;-78
2022/08/08 09:24:54;;;;;;;4.03;2.22;;;;;;;21.03;58.39;102461.88;5258345;28;20029;-75
2022/08/08 09:27:26;;;;;;;7.93;3.10;;;;;;;21.07;55.63;102467.03;5258411;28;20036;-74
2022/08/08 09:30:09;;;;;;;5.53;2.35;;;;;;;21.11;56.38;102479.28;5255233;28;20043;-74
2022/08/08 09:32:41;;;;;;;5.88;2.20;;;;;;;21.26;57.08;102464.69;5258439;28;20334;-77
2022/08/08 09:35:14;;;;;;;;;;;;;;;21.55;57.87;102470.03;5258030;28;20049;-74
2022/08/08 09:37:52;;;;;;;5.88;2.30;;;;;;;21.67;57.13;102457.22;5260301;28;19912;-75
2022/08/08 09:40:25;;;;;;;6.95;2.47;;;;;;;21.90;55.46;102457.38;5257638;28;20033;-75
2022/08/08 09:43:17;;;;;;;4.93;2.25;;;;;;;22.04;54.55;102458.63;5257751;28;20505;-74
2022/08/08 09:46:00;;;;;;;4.33;1.53;;;;;;;22.35;52.70;102460.25;5257414;28;20045;-74
2022/08/08 09:48:34;;;;;;;2.85;1.85;;;;;;;22.31;51.21;102466.56;5257635;28;20037;-73
2022/08/08 09:51:07;;;;;;;7.50;2.08;;;;;;;22.21;53.34;102462.50;5256044;28;20064;-74
2022/08/08 09:53:48;;;;;;;3.55;1.65;;;;;;;22.81;51.47;102459.47;5256405;28;20389;-74
2022/08/08 09:56:20;;;;;;;3.35;1.73;;;;;;;23.04;49.98;102458.56;5256032;28;20182;-74
2022/08/08 09:59:00;;;;;;;;;;;;;;;23.33;51.54;102457.50;5257800;28;20564;-77
2022/08/08 10:01:32;;;;;;;4.15;1.70;;;;;;;22.74;51.58;102450.88;5257436;28;19913;-76
2022/08/08 10:04:08;;;;;;;6.15;1.95;;;;;;;22.67;50.97;102458.22;5277009;28;20039;-75
2022/08/08 10:06:42;;;;;;;6.97;2.03;;;;;;;22.51;51.97;102459.72;5277633;28;20462;-75
2022/08/08 10:09:14;;;;;;;3.72;1.55;;;;;;;22.26;51.55;102465.00;5276601;28;20043;-75
2022/08/08 10:11:49;;;;;;;4.95;1.80;;;;;;;23.02;52.56;102463.09;5277260;28;20032;-76
2022/08/08 10:14:30;;;;;;;6.63;1.90;;;;;;;23.69;49.40;102469.34;5277771;28;20029;-78
2022/08/08 10:17:07;;;;;;;5.20;1.63;;;;;;;24.94;48.07;102467.47;5276262;28;20078;-74
2022/08/08 10:19:40;;;;;;;13.27;2.22;;;;;;;25.17;44.12;102465.50;5277217;28;20082;-74
2022/08/08 10:22:18;;;;;;;3.92;1.63;;;;;;;25.61;44.20;102462.47;5277364;28;20396;-74
2022/08/08 10:24:56;;;;;;;3.35;1.42;;;;;;;26.13;42.24;102458.97;5278781;28;20028;-74
2022/08/08 10:27:30;;;;;;;4.93;1.58;;;;;;;26.85;41.45;102455.13;5257553;28;20059;-74
2022/08/08 10:30:05;;;;;;;4.53;1.73;;;;;;;27.47;38.57;102449.88;5259153;28;20483;-74
2022/08/08 10:32:41;;;;;;;5.43;2.08;;;;;;;27.22;39.38;102446.84;5278326;28;20503;-74
2022/08/08 10:35:15;;;;;;;3.67;1.45;;;;;;;28.06;40.11;102450.94;5274417;28;20651;-74
2022/08/08 10:37:52;;;;;;;4.18;1.67;;;;;;;29.09;35.22;102452.53;5257437;28;20025;-74
2022/08/08 10:40:26;;;;;;;2.60;1.38;;;;;;;28.33;35.18;102446.53;5258476;28;20108;-76
2022/08/08 10:43:02;;;;;;;2.70;1.25;;;;;;;29.19;37.29;102445.63;5262576;28;20067;-73
2022/08/08 10:45:44;;;;;;;3.58;1.33;;;;;;;30.25;33.95;102451.00;5274628;28;20071;-72
2022/08/08 10:48:16;;;;;;;7.50;3.50;;;;;;;30.47;32.04;102449.53;5281549;28;20033;-73
2022/08/08 10:50:47;;;;;;;;;;;;;;;31.54;32.57;102448.00;5281499;28;20079;-73
2022/08/08 10:53:19;;;;;;;4.17;1.70;;;;;;;29.17;33.85;102452.88;5282173;28;19928;-73
2022/08/08 10:55:56;;;;;;;;;;;;;;;29.20;35.28;102454.53;5281203;28;20678;-73
2022/08/08 10:58:28;;;;;;;3.33;1.48;;;;;;;26.82;38.57;102457.13;5281778;28;20381;-75
2022/08/08 11:01:06;;;;;;;;;;;;;;;27.28;39.06;102452.72;5263628;28;20114;-77
2022/08/08 11:03:44;;;;;;;2.38;1.50;;;;;;;25.84;42.03;102443.50;5281804;28;19920;-75
2022/08/08 11:06:16;;;;;;;3.65;1.70;;;;;;;25.75;41.63;102448.44;5280582;28;20044;-73
2022/08/08 11:08:47;;;;;;;3.60;1.70;;;;;;;27.24;39.82;102439.59;5280612;28;20353;-75
2022/08/08 11:11:20;;;;;;;4.13;1.63;;;;;;;27.62;40.12;102437.38;5281384;28;20040;-75
2022/08/08 11:13:54;;;;;;;2.42;1.27;;;;;;;27.62;38.44;102434.72;5282915;28;20037;-74
2022/08/08 11:16:28;;;;;;;3.70;1.70;;;;;;;26.71;41.51;102442.53;5281503;28;20032;-73
2022/08/08 11:19:01;;;;;;;4.80;1.63;;;;;;;25.98;40.81;102441.94;5282123;28;20103;-73
2022/08/08 11:21:35;;;;;;;2.97;1.60;;;;;;;25.33;41.19;102445.16;5281499;28;20056;-73
2022/08/08 11:24:08;;;;;;;2.50;1.38;;;;;;;25.07;42.42;102449.06;5281184;28;20395;-74
2022/08/08 11:26:42;;;;;;;2.97;1.40;;;;;;;25.45;48.13;102447.25;5281096;28;20029;-73
2022/08/08 11:29:16;;;;;;;6.63;1.67;;;;;;;26.10;40.82;102437.75;5280486;28;20119;-75
2022/08/08 11:31:50;;;;;;;2.95;2.40;;;;;;;26.96;41.04;102430.47;5279294;28;20123;-74
2022/08/08 11:34:24;;;;;;;3.80;1.58;;;;;;;28.60;42.47;102426.19;5280882;28;20462;-74
2022/08/08 11:36:57;;;;;;;6.32;1.73;;;;;;;29.43;35.59;102429.72;5279903;28;20073;-74
2022/08/08 11:39:30;;;;;;;2.65;1.10;;;;;;;28.42;36.61;102428.16;5280780;28;20109;-74
2022/08/08 11:42:01;;;;;;;4.90;1.38;;;;;;;27.20;35.88;102427.34;5279670;28;20060;-77
2022/08/08 11:44:33;;;;;;;;;;;;;;;27.49;38.42;102425.69;5280651;28;20037;-75
2022/08/08 11:47:04;;;;;;;2.87;1.10;;;;;;;26.37;37.68;102428.28;5279928;28;19939;-73
2022/08/08 11:49:37;;;;;;;2.75;1.25;;;;;;;27.80;37.27;102421.16;5279597;28;20024;-74
2022/08/08 11:52:10;;;;;;;3.15;1.15;;;;;;;29.54;34.47;102431.66;5280597;28;20061;-74
2022/08/08 11:54:44;;;;;;;2.25;1.20;;;;;;;30.99;32.43;102423.38;5278379;28;20032;-75
2022/08/08 11:57:15;;;;;;;3.25;1.80;;;;;;;31.39;28.95;102418.53;5280286;28;20082;-76
2022/08/08 11:59:47;;;;;;;;;;;;;;;32.29;31.87;102414.34;5280582;28;20037;-79
2022/08/08 12:02:20;;;;;;;2.58;1.10;;;;;;;30.59;29.28;102426.25;5280158;28;19992;-78
2022/08/08 12:05:02;;;;;;;3.42;1.13;;;;;;;30.00;32.66;102417.78;5279064;28;20098;-80
2022/08/08 12:07:48;;;;;;;3.92;1.38;;;;;;;29.01;33.55;102426.19;5280334;28;20163;-77
2022/08/08 12:10:22;;;;;;;1.60;1.05;;;;;;;28.94;34.19;102422.19;5279815;28;20059;-73
2022/08/08 12:13:05;;;;;;;3.58;1.55;;;;;;;30.71;34.14;102420.00;5280235;28;20080;-74
2022/08/08 12:15:39;;;;;;;2.65;1.40;;;;;;;30.43;29.73;102413.03;5279607;28;20108;-76
2022/08/08 12:18:16;;;;;;;3.78;1.40;;;;;;;32.70;30.80;102410.16;5279901;28;20039;-75